| time (UTC) | temp C | wind direction | speed KPH | gust KPH | rain 1hr cm | rain 24hr cm | rain mn cm | humidity % | barometer mb |
| 20260906215002 | 33 | 10 | 4.8 | 6.4 | 0.00 | 0.00 | 0.00 | 30 | 1017.2 |
| 20260906214502 | 32 | 44 | 3.2 | 9.7 | 0.00 | 0.00 | 0.00 | 32 | 1017.4 |
| 20260906214002 | 32 | 82 | 4.8 | 12.9 | 0.00 | 0.00 | 0.00 | 31 | 1017.3 |
| 20260906213502 | 32 | 63 | 0.0 | 6.4 | 0.00 | 0.00 | 0.00 | 30 | 1017.5 |
| 20260906213002 | 32 | 44 | 0.0 | 4.8 | 0.00 | 0.00 | 0.00 | 31 | 1017.5 |
| 20260906212502 | 32 | 340 | 0.0 | 4.8 | 0.00 | 0.00 | 0.00 | 31 | 1017.6 |
| 20260906212002 | 32 | 319 | 0.0 | 3.2 | 0.00 | 0.00 | 0.00 | 30 | 1017.7 |
| 20260906211502 | 32 | 158 | 1.6 | 8.0 | 0.00 | 0.00 | 0.00 | 29 | 1017.9 |
| 20260906211002 | 32 | 99 | 1.6 | 3.2 | 0.00 | 0.00 | 0.00 | 30 | 1017.9 |
| 20260906210502 | 32 | 0 | 0.0 | 3.2 | 0.00 | 0.00 | 0.00 | 31 | 1017.6 |
| 20260906205502 | 31 | 332 | 3.2 | 4.8 | 0.00 | 0.00 | 0.00 | 31 | 1018.0 |
| 20260906205002 | 31 | 339 | 0.0 | 4.8 | 0.00 | 0.00 | 0.00 | 32 | 1017.9 |
| 20260906204002 | 32 | 338 | 1.6 | 4.8 | 0.00 | 0.00 | 0.00 | 31 | 1018.2 |
| 20260906203502 | 31 | 306 | 1.6 | 6.4 | 0.00 | 0.00 | 0.00 | 34 | 1018.2 |
| 20260906203002 | 31 | 114 | 3.2 | 6.4 | 0.00 | 0.00 | 0.00 | 32 | 1018.3 |
| 20260906202502 | 31 | 227 | 4.8 | 6.4 | 0.00 | 0.00 | 0.00 | 32 | 1018.4 |
| 20260906202002 | 31 | 322 | 3.2 | 4.8 | 0.00 | 0.00 | 0.00 | 35 | 1018.3 |
| 20260906201502 | 32 | 104 | 0.0 | 6.4 | 0.00 | 0.00 | 0.00 | 33 | 1018.3 |
| 20260906201002 | 31 | 306 | 3.2 | 6.4 | 0.00 | 0.00 | 0.00 | 34 | 1018.4 |
| 20260906200503 | 32 | 118 | 3.2 | 4.8 | 0.00 | 0.00 | 0.00 | 32 | 1018.5 |
| 20260906200002 | 31 | 331 | 4.8 | 12.9 | 0.00 | 0.00 | 0.00 | 34 | 1018.5 |
| 20260906195502 | 30 | 351 | 3.2 | 4.8 | 0.00 | 0.00 | 0.00 | 35 | 1018.7 |
| 20260906195002 | 30 | 111 | 0.0 | 6.4 | 0.00 | 0.00 | 0.00 | 34 | 1018.9 |
| 20260906194502 | 30 | 104 | 0.0 | 4.8 | 0.00 | 0.00 | 0.00 | 35 | 1018.7 |
| 20260906194002 | 30 | 62 | 3.2 | 4.8 | 0.00 | 0.00 | 0.00 | 36 | 1018.7 |
| 20260906193502 | 30 | 269 | 1.6 | 4.8 | 0.00 | 0.00 | 0.00 | 35 | 1018.7 |
| 20260906193002 | 30 | 127 | 1.6 | 3.2 | 0.00 | 0.00 | 0.00 | 35 | 1018.9 |
| 20260906192502 | 30 | 27 | 0.0 | 3.2 | 0.00 | 0.00 | 0.00 | 36 | 1019.1 |
| 20260906192002 | 30 | 340 | 3.2 | 3.2 | 0.00 | 0.00 | 0.00 | 36 | 1019.0 |
| 20260906191502 | 28 | 340 | 3.2 | 4.8 | 0.00 | 0.00 | 0.00 | 38 | 1019.4 |
| 20260906190502 | 29 | 160 | 3.2 | 3.2 | 0.00 | 0.00 | 0.00 | 36 | 1019.3 |
| 20260906190002 | 29 | 0 | 1.6 | 3.2 | 0.00 | 0.00 | 0.00 | 38 | 1019.3 |
| 20260906185503 | 28 | 281 | 0.0 | 4.8 | 0.00 | 0.00 | 0.00 | 40 | 1019.4 |
| 20260906185001 | 28 | 357 | 1.6 | 4.8 | 0.00 | 0.00 | 0.00 | 39 | 1019.6 |
| 20260906184503 | 28 | 46 | 0.0 | 8.0 | 0.00 | 0.00 | 0.00 | 41 | 1020.2 |
| 20260906184003 | 28 | 62 | 1.6 | 6.4 | 0.00 | 0.00 | 0.00 | 42 | 1020.3 |
| 20260906183002 | 28 | 169 | 0.0 | 4.8 | 0.00 | 0.00 | 0.00 | 44 | 1019.8 |
| 20260906182502 | 27 | 339 | 1.6 | 6.4 | 0.00 | 0.00 | 0.00 | 44 | 1020.1 |
| 20260906182002 | 27 | 97 | 3.2 | 4.8 | 0.00 | 0.00 | 0.00 | 45 | 1020.2 |
| 20260906180502 | 27 | 263 | 4.8 | 6.4 | 0.00 | 0.00 | 0.00 | 45 | 1020.6 |
| 20260906180002 | 27 | 83 | 3.2 | 6.4 | 0.00 | 0.00 | 0.00 | 46 | 1020.6 |
| 20260906174502 | 26 | 73 | 0.0 | 6.4 | 0.00 | 0.00 | 0.00 | 48 | 1020.9 |
| 20260906174002 | 26 | 246 | 3.2 | 9.7 | 0.00 | 0.00 | 0.00 | 45 | 1020.8 |
| 20260906173502 | 27 | 84 | 1.6 | 3.2 | 0.00 | 0.00 | 0.00 | 47 | 1021.2 |
| 20260906173002 | 26 | 100 | 3.2 | 6.4 | 0.00 | 0.00 | 0.00 | 47 | 1021.2 |
| 20260906172501 | 27 | 0 | 4.8 | 8.0 | 0.00 | 0.00 | 0.00 | 47 | 1021.2 |
| 20260906172002 | 26 | 106 | 0.0 | 3.2 | 0.00 | 0.00 | 0.00 | 48 | 1021.2 |
| 20260906171502 | 26 | 53 | 1.6 | 4.8 | 0.00 | 0.00 | 0.00 | 49 | 1021.4 |
| 20260906171002 | 26 | 353 | 0.0 | 4.8 | 0.00 | 0.00 | 0.00 | 49 | 1021.4 |
| 20260906170502 | 26 | 0 | 0.0 | 3.2 | 0.00 | 0.00 | 0.00 | 49 | 1021.6 |
| 20260906170002 | 26 | 38 | 0.0 | 3.2 | 0.00 | 0.00 | 0.00 | 49 | 1021.5 |
| 20260906165502 | 26 | 323 | 1.6 | 6.4 | 0.00 | 0.00 | 0.00 | 49 | 1021.6 |
| 20260906165002 | 26 | 0 | 6.4 | 6.4 | 0.00 | 0.00 | 0.00 | 47 | 1021.5 |
| 20260906164502 | 25 | 67 | 3.2 | 4.8 | 0.00 | 0.00 | 0.00 | 50 | 1021.6 |
| 20260906164002 | 25 | 320 | 3.2 | 8.0 | 0.00 | 0.00 | 0.00 | 49 | 1021.4 |
| 20260906163502 | 24 | 358 | 3.2 | 9.7 | 0.00 | 0.00 | 0.00 | 50 | 1021.6 |
| 20260906163002 | 25 | 334 | 8.0 | 12.9 | 0.00 | 0.00 | 0.00 | 48 | 1021.4 |
| 20260906162502 | 24 | 74 | 0.0 | 6.4 | 0.00 | 0.00 | 0.00 | 51 | 1021.5 |
| 20260906162001 | 24 | 4 | 3.2 | 6.4 | 0.00 | 0.00 | 0.00 | 48 | 1021.4 |
| 20260906161503 | 25 | 356 | 3.2 | 3.2 | 0.00 | 0.00 | 0.00 | 47 | 1021.4 |
| 20260906160503 | 25 | 335 | 1.6 | 4.8 | 0.00 | 0.00 | 0.00 | 47 | 1021.6 |
| 20260906160002 | 25 | 14 | 0.0 | 3.2 | 0.00 | 0.00 | 0.00 | 50 | 1021.6 |
| 20260906154502 | 22 | 357 | 6.4 | 8.0 | 0.00 | 0.00 | 0.00 | 58 | 1021.8 |
| 20260906153502 | 22 | 8 | 4.8 | 8.0 | 0.00 | 0.00 | 0.00 | 60 | 1021.7 |
| 20260906153002 | 22 | 4 | 3.2 | 4.8 | 0.00 | 0.00 | 0.00 | 59 | 1021.8 |
| 20260906152502 | 22 | 13 | 4.8 | 4.8 | 0.00 | 0.00 | 0.00 | 61 | 1021.6 |
| 20260906152002 | 21 | 0 | 6.4 | 8.0 | 0.00 | 0.00 | 0.00 | 61 | 1021.7 |
| 20260906151502 | 21 | 111 | 1.6 | 6.4 | 0.00 | 0.00 | 0.00 | 62 | 1021.7 |
| 20260906151002 | 22 | 336 | 3.2 | 8.0 | 0.00 | 0.00 | 0.00 | 59 | 1021.8 |
| 20260906150502 | 22 | 58 | 0.0 | 3.2 | 0.00 | 0.00 | 0.00 | 63 | 1021.9 |
| 20260906150002 | 22 | 95 | 1.6 | 3.2 | 0.00 | 0.00 | 0.00 | 60 | 1022.1 |
| 20260906145502 | 21 | 32 | 0.0 | 8.0 | 0.00 | 0.00 | 0.00 | 63 | 1021.9 |
| 20260906144502 | 20 | 358 | 6.4 | 8.0 | 0.00 | 0.00 | 0.00 | 65 | 1021.7 |
| 20260906144002 | 20 | 8 | 3.2 | 9.7 | 0.00 | 0.00 | 0.00 | 65 | 1021.7 |
| 20260906143502 | 20 | 0 | 8.0 | 11.3 | 0.00 | 0.00 | 0.00 | 66 | 1021.6 |
| 20260906143002 | 18 | 0 | 3.2 | 4.8 | 0.00 | 0.00 | 0.00 | 65 | 1021.6 |
| 20260906142502 | 18 | 19 | 3.2 | 6.4 | 0.00 | 0.00 | 0.00 | 65 | 1021.7 |
| 20260906142002 | 20 | 11 | 4.8 | 6.4 | 0.00 | 0.00 | 0.00 | 64 | 1021.7 |
| 20260906141002 | 19 | 49 | 3.2 | 4.8 | 0.00 | 0.00 | 0.00 | 65 | 1021.9 |
| 20260906140503 | 19 | 11 | 8.0 | 8.0 | 0.00 | 0.00 | 0.00 | 64 | 1021.8 |
| 20260906140003 | 18 | 6 | 3.2 | 6.4 | 0.00 | 0.00 | 0.00 | 63 | 1021.8 |
| 20260906135502 | 18 | 9 | 4.8 | 6.4 | 0.00 | 0.00 | 0.00 | 66 | 1022.1 |
| 20260906135002 | 18 | 21 | 4.8 | 8.0 | 0.00 | 0.00 | 0.00 | 67 | 1021.6 |
| 20260906134501 | 17 | 17 | 4.8 | 8.0 | 0.00 | 0.00 | 0.00 | 67 | 1021.8 |
| 20260906134002 | 17 | 2 | 4.8 | 6.4 | 0.00 | 0.00 | 0.00 | 68 | 1021.8 |
| 20260906133503 | 16 | 17 | 6.4 | 6.4 | 0.00 | 0.00 | 0.00 | 69 | 1021.9 |
| 20260906132503 | 16 | 6 | 4.8 | 4.8 | 0.00 | 0.00 | 0.00 | 68 | 1021.8 |
| 20260906131502 | 16 | 353 | 4.8 | 4.8 | 0.00 | 0.00 | 0.00 | 70 | 1021.7 |
| 20260906131002 | 15 | 4 | 4.8 | 4.8 | 0.00 | 0.00 | 0.00 | 72 | 1021.6 |
| 20260906130502 | 15 | 355 | 4.8 | 6.4 | 0.00 | 0.00 | 0.00 | 74 | 1021.5 |
| 20260906130002 | 15 | 3 | 6.4 | 6.4 | 0.00 | 0.00 | 0.00 | 76 | 1021.7 |
| 20260906125002 | 15 | 4 | 4.8 | 6.4 | 0.00 | 0.00 | 0.00 | 78 | 1021.6 |
| 20260906124002 | 15 | 20 | 3.2 | 4.8 | 0.00 | 0.00 | 0.00 | 80 | 1021.5 |
| 20260906123502 | 16 | 11 | 4.8 | 4.8 | 0.00 | 0.00 | 0.00 | 82 | 1021.5 |
| 20260906123002 | 16 | 13 | 4.8 | 6.4 | 0.00 | 0.00 | 0.00 | 82 | 1021.4 |
| 20260906122502 | 16 | 6 | 4.8 | 6.4 | 0.00 | 0.00 | 0.00 | 82 | 1021.4 |
| 20260906122002 | 16 | 3 | 4.8 | 6.4 | 0.00 | 0.00 | 0.00 | 82 | 1021.7 |
| 20260906121502 | 16 | 342 | 3.2 | 3.2 | 0.00 | 0.00 | 0.00 | 81 | 1021.6 |
| 20260906121002 | 16 | 7 | 4.8 | 4.8 | 0.00 | 0.00 | 0.00 | 82 | 1021.4 |
| 20260906120502 | 16 | 33 | 3.2 | 3.2 | 0.00 | 0.00 | 0.00 | 81 | 1021.4 |
| 20260906120002 | 16 | 35 | 3.2 | 3.2 | 0.00 | 0.00 | 0.00 | 80 | 1021.7 |
| 20260906115002 | 16 | 9 | 3.2 | 4.8 | 0.00 | 0.00 | 0.00 | 78 | 1021.5 |
| 20260906114502 | 16 | 321 | 1.6 | 3.2 | 0.00 | 0.00 | 0.00 | 78 | 1021.6 |
| 20260906114002 | 16 | 353 | 1.6 | 3.2 | 0.00 | 0.00 | 0.00 | 79 | 1021.6 |
| 20260906113502 | 16 | 304 | 1.6 | 3.2 | 0.00 | 0.00 | 0.00 | 78 | 1021.6 |
| 20260906113002 | 16 | 343 | 1.6 | 3.2 | 0.00 | 0.00 | 0.00 | 76 | 1021.7 |
| 20260906112502 | 16 | 2 | 3.2 | 3.2 | 0.00 | 0.00 | 0.00 | 77 | 1021.4 |
| 20260906112002 | 16 | 32 | 3.2 | 3.2 | 0.00 | 0.00 | 0.00 | 75 | 1021.2 |
| 20260906111502 | 16 | 38 | 3.2 | 4.8 | 0.00 | 0.00 | 0.00 | 73 | 1021.4 |
| 20260906111002 | 16 | 10 | 3.2 | 4.8 | 0.00 | 0.00 | 0.00 | 70 | 1021.4 |
| 20260906110502 | 16 | 4 | 3.2 | 6.4 | 0.00 | 0.00 | 0.00 | 66 | 1021.1 |
| 20260906110002 | 17 | 5 | 4.8 | 6.4 | 0.00 | 0.00 | 0.00 | 66 | 1021.4 |
| 20260906105502 | 16 | 10 | 4.8 | 4.8 | 0.00 | 0.00 | 0.00 | 65 | 1021.4 |
| 20260906105002 | 16 | 355 | 4.8 | 4.8 | 0.00 | 0.00 | 0.00 | 66 | 1021.5 |
| 20260906104503 | 16 | 6 | 3.2 | 4.8 | 0.00 | 0.00 | 0.00 | 61 | 1021.6 |
| 20260906103502 | 16 | 347 | 3.2 | 3.2 | 0.00 | 0.00 | 0.00 | 59 | 1021.4 |
| 20260906103002 | 16 | 3 | 3.2 | 4.8 | 0.00 | 0.00 | 0.00 | 60 | 1021.5 |
| 20260906102501 | 16 | 0 | 3.2 | 3.2 | 0.00 | 0.00 | 0.00 | 61 | 1021.5 |
| 20260906102003 | 17 | 353 | 4.8 | 4.8 | 0.00 | 0.00 | 0.00 | 59 | 1021.2 |
| 20260906101502 | 16 | 354 | 4.8 | 4.8 | 0.00 | 0.00 | 0.00 | 60 | 1021.2 |
| 20260906101002 | 16 | 16 | 0.0 | 3.2 | 0.00 | 0.00 | 0.00 | 60 | 1021.2 |
| 20260906100502 | 16 | 331 | 3.2 | 3.2 | 0.00 | 0.00 | 0.00 | 60 | 1021.2 |
| 20260906095502 | 17 | 351 | 3.2 | 4.8 | 0.00 | 0.00 | 0.00 | 59 | 1021.0 |
| 20260906094502 | 17 | 31 | 1.6 | 3.2 | 0.00 | 0.00 | 0.00 | 58 | 1021.0 |
| 20260906094002 | 17 | 13 | 1.6 | 3.2 | 0.00 | 0.00 | 0.00 | 58 | 1021.0 |
| 20260906093502 | 17 | 358 | 3.2 | 4.8 | 0.00 | 0.00 | 0.00 | 60 | 1020.8 |
| 20260906093002 | 18 | 9 | 3.2 | 3.2 | 0.00 | 0.00 | 0.00 | 59 | 1020.8 |
| 20260906092502 | 18 | 0 | 3.2 | 4.8 | 0.00 | 0.00 | 0.00 | 59 | 1020.6 |
| 20260906092002 | 17 | 354 | 4.8 | 6.4 | 0.00 | 0.00 | 0.00 | 60 | 1020.6 |
| 20260906091002 | 17 | 1 | 4.8 | 4.8 | 0.00 | 0.00 | 0.00 | 57 | 1020.6 |
| 20260906090502 | 17 | 3 | 3.2 | 3.2 | 0.00 | 0.00 | 0.00 | 56 | 1020.6 |
| 20260906090002 | 18 | 340 | 3.2 | 4.8 | 0.00 | 0.00 | 0.00 | 56 | 1020.4 |
| 20260906085502 | 18 | 356 | 4.8 | 4.8 | 0.00 | 0.00 | 0.00 | 56 | 1020.6 |
| 20260906085002 | 18 | 0 | 4.8 | 6.4 | 0.00 | 0.00 | 0.00 | 55 | 1020.6 |
| 20260906084502 | 18 | 348 | 4.8 | 6.4 | 0.00 | 0.00 | 0.00 | 55 | 1020.3 |
| 20260906084002 | 18 | 5 | 3.2 | 4.8 | 0.00 | 0.00 | 0.00 | 55 | 1020.6 |
| 20260906083502 | 18 | 338 | 4.8 | 6.4 | 0.00 | 0.00 | 0.00 | 54 | 1020.8 |
| 20260906083002 | 18 | 13 | 3.2 | 3.2 | 0.00 | 0.00 | 0.00 | 54 | 1020.8 |
| 20260906082002 | 18 | 352 | 6.4 | 6.4 | 0.00 | 0.00 | 0.00 | 55 | 1020.9 |
| 20260906081503 | 18 | 14 | 3.2 | 4.8 | 0.00 | 0.00 | 0.00 | 55 | 1020.6 |
| 20260906080502 | 19 | 353 | 6.4 | 9.7 | 0.00 | 0.00 | 0.00 | 54 | 1020.6 |
| 20260906080002 | 19 | 359 | 4.8 | 9.7 | 0.00 | 0.00 | 0.00 | 54 | 1020.8 |
| 20260906075501 | 19 | 8 | 4.8 | 8.0 | 0.00 | 0.00 | 0.00 | 54 | 1020.6 |
| 20260906075002 | 19 | 2 | 4.8 | 9.7 | 0.00 | 0.00 | 0.00 | 53 | 1020.8 |
| 20260906074502 | 20 | 16 | 6.4 | 12.9 | 0.00 | 0.00 | 0.00 | 52 | 1021.0 |
| 20260906074002 | 19 | 357 | 8.0 | 9.7 | 0.00 | 0.00 | 0.00 | 53 | 1020.8 |
| 20260906073502 | 19 | 356 | 6.4 | 9.7 | 0.00 | 0.00 | 0.00 | 52 | 1020.6 |
| 20260906073002 | 19 | 357 | 4.8 | 9.7 | 0.00 | 0.00 | 0.00 | 50 | 1020.6 |
| 20260906072502 | 19 | 3 | 6.4 | 12.9 | 0.00 | 0.00 | 0.00 | 50 | 1020.6 |
| 20260906072002 | 19 | 1 | 11.3 | 14.5 | 0.00 | 0.00 | 0.00 | 51 | 1020.4 |
| 20260906071502 | 18 | 1 | 8.0 | 14.5 | 0.00 | 0.00 | 0.00 | 52 | 1020.8 |
| 20260906071002 | 19 | 359 | 6.4 | 6.4 | 0.00 | 0.00 | 0.00 | 51 | 1020.9 |
| 20260906070002 | 19 | 359 | 6.4 | 8.0 | 0.00 | 0.00 | 0.00 | 51 | 1021.1 |
| 20260906065502 | 19 | 359 | 4.8 | 6.4 | 0.00 | 0.00 | 0.00 | 51 | 1020.8 |
| 20260906065002 | 20 | 359 | 4.8 | 4.8 | 0.00 | 0.00 | 0.00 | 52 | 1020.9 |
| 20260906064502 | 20 | 32 | 1.6 | 3.2 | 0.00 | 0.00 | 0.00 | 51 | 1021.0 |
| 20260906063502 | 20 | 16 | 3.2 | 3.2 | 0.00 | 0.00 | 0.00 | 48 | 1020.9 |
| 20260906063002 | 21 | 333 | 0.0 | 3.2 | 0.00 | 0.00 | 0.00 | 47 | 1021.0 |
| 20260906062502 | 21 | 180 | 0.0 | 3.2 | 0.00 | 0.00 | 0.00 | 47 | 1021.1 |
| 20260906062002 | 20 | 248 | 0.0 | 3.2 | 0.00 | 0.00 | 0.00 | 47 | 1020.9 |
| 20260906061502 | 20 | 0 | 4.8 | 4.8 | 0.00 | 0.00 | 0.00 | 48 | 1020.8 |
| 20260906061002 | 20 | 20 | 3.2 | 3.2 | 0.00 | 0.00 | 0.00 | 49 | 1020.6 |
| 20260906060502 | 20 | 3 | 3.2 | 4.8 | 0.00 | 0.00 | 0.00 | 49 | 1020.6 |
| 20260906055502 | 21 | 345 | 3.2 | 9.7 | 0.00 | 0.00 | 0.00 | 47 | 1020.6 |
| 20260906055001 | 20 | 346 | 4.8 | 6.4 | 0.00 | 0.00 | 0.00 | 48 | 1020.6 |
| 20260906054502 | 19 | 304 | 1.6 | 4.8 | 0.00 | 0.00 | 0.00 | 49 | 1020.9 |
| 20260906054002 | 20 | 1 | 4.8 | 4.8 | 0.00 | 0.00 | 0.00 | 48 | 1020.9 |
| 20260906053502 | 20 | 1 | 6.4 | 6.4 | 0.00 | 0.00 | 0.00 | 47 | 1021.1 |
| 20260906053002 | 20 | 11 | 0.0 | 1.6 | 0.00 | 0.00 | 0.00 | 47 | 1021.1 |
| 20260906052502 | 20 | 4 | 1.6 | 3.2 | 0.00 | 0.00 | 0.00 | 48 | 1020.9 |
| 20260906052002 | 20 | 255 | 3.2 | 4.8 | 0.00 | 0.00 | 0.00 | 48 | 1020.8 |
| 20260906051502 | 20 | 89 | 0.0 | 4.8 | 0.00 | 0.00 | 0.00 | 48 | 1021.4 |
| 20260906051002 | 20 | 58 | 1.6 | 1.6 | 0.00 | 0.00 | 0.00 | 47 | 1020.4 |
| 20260906050002 | 20 | 1 | 4.8 | 9.7 | 0.00 | 0.00 | 0.00 | 48 | 1019.8 |
| 20260906045502 | 20 | 345 | 4.8 | 6.4 | 0.00 | 0.00 | 0.00 | 47 | 1020.0 |
| 20260906045003 | 20 | 296 | 1.6 | 6.4 | 0.00 | 0.00 | 0.00 | 47 | 1020.0 |
| 20260906044503 | 21 | 249 | 3.2 | 3.2 | 0.00 | 0.00 | 0.00 | 45 | 1020.0 |
| 20260906044002 | 21 | 53 | 3.2 | 3.2 | 0.00 | 0.00 | 0.00 | 46 | 1019.6 |
| 20260906043002 | 22 | 3 | 8.0 | 9.7 | 0.00 | 0.00 | 0.00 | 44 | 1019.4 |
| 20260906042502 | 22 | 356 | 8.0 | 9.7 | 0.00 | 0.00 | 0.00 | 44 | 1019.4 |
| 20260906042002 | 22 | 5 | 6.4 | 9.7 | 0.00 | 0.00 | 0.00 | 43 | 1019.4 |
| 20260906041502 | 22 | 4 | 8.0 | 9.7 | 0.00 | 0.00 | 0.00 | 43 | 1019.4 |
| 20260906041002 | 22 | 9 | 8.0 | 9.7 | 0.00 | 0.00 | 0.00 | 43 | 1019.3 |
| 20260906040502 | 21 | 0 | 6.4 | 9.7 | 0.00 | 0.00 | 0.00 | 43 | 1019.4 |
| 20260906040003 | 21 | 345 | 4.8 | 6.4 | 0.00 | 0.00 | 0.00 | 42 | 1019.5 |
| 20260906035502 | 22 | 2 | 6.4 | 6.4 | 0.00 | 0.00 | 0.00 | 40 | 1019.6 |
| 20260906035002 | 22 | 349 | 6.4 | 6.4 | 0.00 | 0.00 | 0.00 | 41 | 1019.5 |
| 20260906034502 | 22 | 348 | 4.8 | 6.4 | 0.00 | 0.00 | 0.00 | 40 | 1019.7 |
| 20260906034003 | 22 | 359 | 4.8 | 4.8 | 0.00 | 0.00 | 0.00 | 39 | 1019.6 |
| 20260906033502 | 22 | 352 | 4.8 | 6.4 | 0.00 | 0.00 | 0.00 | 39 | 1019.4 |
| 20260906033002 | 22 | 353 | 3.2 | 6.4 | 0.00 | 0.00 | 0.00 | 38 | 1019.5 |
| 20260906032502 | 23 | 335 | 3.2 | 9.7 | 0.00 | 0.00 | 0.00 | 37 | 1019.6 |
| 20260906032002 | 23 | 8 | 4.8 | 4.8 | 0.00 | 0.00 | 0.00 | 38 | 1019.6 |
| 20260906031502 | 23 | 354 | 4.8 | 4.8 | 0.00 | 0.00 | 0.00 | 38 | 1019.6 |
| 20260906031002 | 23 | 3 | 4.8 | 4.8 | 0.00 | 0.00 | 0.00 | 38 | 1019.4 |
| 20260906030002 | 23 | 0 | 1.6 | 3.2 | 0.00 | 0.00 | 0.00 | 37 | 1019.3 |
| 20260906025502 | 24 | 327 | 1.6 | 4.8 | 0.00 | 0.00 | 0.00 | 36 | 1019.1 |
| 20260906025002 | 25 | 349 | 4.8 | 6.4 | 0.00 | 0.00 | 0.00 | 35 | 1018.9 |
| 20260906024502 | 25 | 23 | 1.6 | 4.8 | 0.00 | 0.00 | 0.00 | 34 | 1019.0 |
| 20260906024002 | 25 | 4 | 3.2 | 4.8 | 0.00 | 0.00 | 0.00 | 30 | 1018.7 |
| 20260906023502 | 25 | 354 | 3.2 | 6.4 | 0.00 | 0.00 | 0.00 | 31 | 1018.7 |
| 20260906023003 | 25 | 13 | 3.2 | 6.4 | 0.00 | 0.00 | 0.00 | 32 | 1019.0 |
| 20260906022502 | 25 | 357 | 4.8 | 4.8 | 0.00 | 0.00 | 0.00 | 32 | 1018.8 |
| 20260906021002 | 26 | 353 | 8.0 | 9.7 | 0.00 | 0.00 | 0.00 | 28 | 1018.5 |
| 20260906020502 | 26 | 343 | 4.8 | 6.4 | 0.00 | 0.00 | 0.00 | 28 | 1018.4 |
| 20260906015502 | 27 | 309 | 3.2 | 8.0 | 0.00 | 0.00 | 0.00 | 28 | 1018.3 |
| 20260906014002 | 27 | 269 | 4.8 | 16.1 | 0.00 | 0.00 | 0.00 | 28 | 1018.4 |
| 20260906013502 | 27 | 260 | 9.7 | 19.3 | 0.00 | 0.00 | 0.00 | 28 | 1018.3 |
| 20260906013002 | 27 | 300 | 9.7 | 9.7 | 0.00 | 0.00 | 0.00 | 29 | 1018.0 |
| 20260906012502 | 27 | 311 | 4.8 | 9.7 | 0.00 | 0.00 | 0.00 | 28 | 1018.4 |
| 20260906012002 | 27 | 315 | 3.2 | 12.9 | 0.00 | 0.00 | 0.00 | 29 | 1018.3 |
| 20260906010002 | 27 | 324 | 6.4 | 14.5 | 0.00 | 0.00 | 0.00 | 29 | 1018.7 |
| 20260906005502 | 27 | 302 | 4.8 | 11.3 | 0.00 | 0.00 | 0.00 | 30 | 1018.3 |
| 20260906005002 | 27 | 290 | 6.4 | 11.3 | 0.00 | 0.00 | 0.00 | 30 | 1018.5 |
| 20260906004503 | 27 | 328 | 6.4 | 17.7 | 0.00 | 0.00 | 0.00 | 30 | 1018.4 |
| 20260906004002 | 27 | 308 | 8.0 | 16.1 | 0.00 | 0.00 | 0.00 | 29 | 1018.5 |
| 20260906003502 | 27 | 308 | 9.7 | 16.1 | 0.00 | 0.00 | 0.00 | 29 | 1018.5 |
| 20260906003001 | 27 | 320 | 9.7 | 17.7 | 0.00 | 0.00 | 0.00 | 29 | 1018.8 |
| 20260906002503 | 27 | 312 | 12.9 | 24.1 | 0.00 | 0.00 | 0.00 | 29 | 1018.8 |
| 20260906002002 | 28 | 324 | 11.3 | 32.2 | 0.00 | 0.00 | 0.00 | 29 | 1018.3 |
| 20260906001502 | 28 | 353 | 14.5 | 17.7 | 0.00 | 0.00 | 0.00 | 27 | 1018.4 |
| 20260906001002 | 29 | 351 | 12.9 | 19.3 | 0.00 | 0.00 | 0.00 | 26 | 1018.5 |
| 20260906000502 | 29 | 330 | 14.5 | 22.5 | 0.00 | 0.00 | 0.00 | 26 | 1018.5 |
| 20260906000002 | 29 | 350 | 14.5 | 20.9 | 0.00 | 0.00 | 0.00 | 28 | 1018.5 |
| 20260905235502 | 28 | 278 | 14.5 | 20.9 | 0.00 | 0.00 | 0.00 | 27 | 1018.4 |
| 20260905235003 | 29 | 277 | 14.5 | 25.7 | 0.00 | 0.00 | 0.00 | 26 | 1018.4 |
| 20260905234502 | 30 | 323 | 12.9 | 20.9 | 0.00 | 0.00 | 0.00 | 25 | 1018.7 |
| 20260905234002 | 30 | 292 | 12.9 | 14.5 | 0.00 | 0.00 | 0.00 | 23 | 1018.5 |
| 20260905233502 | 31 | 344 | 4.8 | 6.4 | 0.00 | 0.00 | 0.00 | 23 | 1018.4 |
| 20260905232502 | 31 | 65 | 1.6 | 3.2 | 0.00 | 0.00 | 0.00 | 22 | 1018.2 |
| 20260905232002 | 31 | 323 | 1.6 | 3.2 | 0.00 | 0.00 | 0.00 | 23 | 1018.1 |
| 20260905231502 | 31 | 348 | 1.6 | 3.2 | 0.00 | 0.00 | 0.00 | 23 | 1017.9 |
| 20260905231002 | 32 | 345 | 3.2 | 6.4 | 0.00 | 0.00 | 0.00 | 21 | 1018.0 |
| 20260905230002 | 32 | 331 | 3.2 | 4.8 | 0.00 | 0.00 | 0.00 | 21 | 1017.7 |
| 20260905225502 | 31 | 308 | 0.0 | 4.8 | 0.00 | 0.00 | 0.00 | 22 | 1017.7 |
| 20260905224002 | 31 | 348 | 0.0 | 1.6 | 0.00 | 0.00 | 0.00 | 22 | 1017.7 |
| 20260905223502 | 31 | 310 | 3.2 | 3.2 | 0.00 | 0.00 | 0.00 | 23 | 1017.7 |
| 20260905223002 | 32 | 117 | 0.0 | 1.6 | 0.00 | 0.00 | 0.00 | 22 | 1017.7 |
| 20260905222502 | 32 | 258 | 0.0 | 3.2 | 0.00 | 0.00 | 0.00 | 22 | 1018.0 |
| 20260905222002 | 32 | 240 | 0.0 | 4.8 | 0.00 | 0.00 | 0.00 | 21 | 1017.6 |
| 20260905221002 | 33 | 33 | 0.0 | 4.8 | 0.00 | 0.00 | 0.00 | 20 | 1017.6 |
| 20260905220502 | 33 | 304 | 0.0 | 6.4 | 0.00 | 0.00 | 0.00 | 20 | 1017.5 |
| 20260905215502 | 33 | 333 | 0.0 | 1.6 | 0.00 | 0.00 | 0.00 | 20 | 1018.0 |